Capitol Logistics 775


EBLG
Liège Airport
Liege, BE
LLBG
Ben Gurion International Airport
Tel Aviv, IL

Route Details

Aircraft Information
Primary: Boeing 767-300BDSF
Backup: Not Available
Route Data
Distance: 1718nm
Sched. Duration: 3h 54m
Avg. Duration: 4h 26m (+72m)
Times Flown: 2
Recm'd Route: LIRSU UZ315 RIDAR UZ738 UNKEN TALAS UN130 MES UL609 SOLIN GODED2
Planned Altitude: 33,000ft
Origin Wx: EBLG 221720Z 22005KT 9999 SCT020 15/14 Q1012 TEMPO 4000 SHRA
Dest. Wx: LLBG 221720Z VRB01KT CAVOK 26/17 Q1016 NOSIG
Notes:

Financial History
Total Freight: 155,901lbs
Average Load: 77,951lbs/flt
Fuel Used: 103,135lbs
Avg. Fuel Used: 51,568lbs/flt
Fuel Expense: $114,480
Avg. Fuel Expense: $57,240
Avg. Fuel Cost: $1.11/lbs
Total Gross Income: $337,494
Pilot Pay: $388
Total Expenses: $36,553
Total Revenue: $184,150
Average Revenue: $168,747.22